createdAt,value
2022-12-05T00:01:17.353Z,102639.69
2022-12-05T00:03:45.440Z,102645.72
2022-12-05T00:06:12.240Z,102637.13
2022-12-05T00:08:39.176Z,102637.97
2022-12-05T00:11:14.214Z,102647.50
2022-12-05T00:13:42.643Z,102624.25
2022-12-05T00:16:12.030Z,102623.37
2022-12-05T00:18:38.900Z,102619.97
2022-12-05T00:21:07.080Z,102635.44
2022-12-05T00:23:34.205Z,102642.38
2022-12-05T00:26:05.175Z,102639.78
2022-12-05T00:28:33.237Z,102635.47
2022-12-05T00:31:05.922Z,102631.16
2022-12-05T00:33:32.612Z,102639.84
2022-12-05T00:36:04.623Z,102632.09
2022-12-05T00:38:31.912Z,102608.88
2022-12-05T00:41:04.314Z,102623.44
2022-12-05T00:43:31.834Z,102626.03
2022-12-05T00:46:10.109Z,102608.84
2022-12-05T00:48:37.747Z,102618.28
2022-12-05T00:51:10.888Z,102614.91
2022-12-05T00:53:38.160Z,102616.59
2022-12-05T00:56:07.953Z,102614.03
2022-12-05T00:58:34.676Z,102607.97
2022-12-05T01:01:35.533Z,102602.84
2022-12-05T01:04:15.958Z,102608.88
2022-12-05T01:06:43.352Z,102602.00
2022-12-05T01:09:13.598Z,102596.84
2022-12-05T01:11:41.743Z,102597.69
2022-12-05T01:14:10.511Z,102603.72
2022-12-05T01:16:39.180Z,102586.50
2022-12-05T01:19:14.944Z,102586.47
2022-12-05T01:21:42.758Z,102593.41
2022-12-05T01:24:10.898Z,102585.63
2022-12-05T01:26:37.712Z,102571.00
2022-12-05T01:29:05.396Z,102568.44
2022-12-05T01:31:36.478Z,102561.47
2022-12-05T01:34:06.305Z,102564.06
2022-12-05T01:36:33.667Z,102559.75
2022-12-05T01:39:00.477Z,102558.91
2022-12-05T01:41:30.788Z,102547.75
2022-12-05T01:44:03.491Z,102555.50
2022-12-05T01:46:32.893Z,102554.59
2022-12-05T01:49:11.438Z,102558.97
2022-12-05T01:51:47.579Z,102536.56
2022-12-05T01:54:16.913Z,102555.50
2022-12-05T01:56:48.220Z,102537.44
2022-12-05T01:59:17.135Z,102554.66
2022-12-05T02:01:44.373Z,102559.81
2022-12-05T02:04:11.430Z,102550.34
2022-12-05T02:06:39.164Z,102556.41
2022-12-05T02:09:06.448Z,102559.84
2022-12-05T02:11:34.526Z,102551.31
2022-12-05T02:14:15.846Z,102570.22
2022-12-05T02:17:04.432Z,102548.72
2022-12-05T02:19:57.126Z,102574.56
2022-12-05T02:22:43.880Z,102553.03
2022-12-05T02:25:28.755Z,102571.09
2022-12-05T02:28:28.050Z,102551.31
2022-12-05T02:30:59.896Z,102568.50
2022-12-05T02:33:35.954Z,102562.50
2022-12-05T02:36:11.366Z,102567.69
2022-12-05T02:38:56.284Z,102549.63
2022-12-05T02:41:52.071Z,102560.78
2022-12-05T02:44:28.933Z,102568.53
2022-12-05T02:46:56.909Z,102555.66
2022-12-05T02:49:30.558Z,102572.87
2022-12-05T02:51:59.963Z,102567.72
2022-12-05T02:54:39.698Z,102568.53
2022-12-05T02:57:08.546Z,102571.12
2022-12-05T02:59:35.842Z,102574.59
2022-12-05T03:02:02.558Z,102566.00
2022-12-05T03:04:31.285Z,102567.72
2022-12-05T03:07:00.759Z,102563.41
2022-12-05T03:09:39.671Z,102569.44
2022-12-05T03:12:23.440Z,102570.28
2022-12-05T03:15:02.111Z,102563.41
2022-12-05T03:17:34.455Z,102551.38
2022-12-05T03:20:07.832Z,102555.69
2022-12-05T03:22:46.664Z,102570.34
2022-12-05T03:25:14.112Z,102554.84
2022-12-05T03:27:53.145Z,102569.44
2022-12-05T03:30:22.460Z,102565.16
2022-12-05T03:32:58.317Z,102561.66
2022-12-05T03:35:31.246Z,102554.81
2022-12-05T03:38:29.767Z,102551.31
2022-12-05T03:41:07.791Z,102553.06
2022-12-05T03:43:46.720Z,102547.03
2022-12-05T03:46:21.711Z,102553.06
2022-12-05T03:49:06.923Z,102553.91
2022-12-05T03:52:02.948Z,102561.69
2022-12-05T03:54:36.377Z,102563.41
2022-12-05T03:57:09.274Z,102563.41
2022-12-05T03:59:44.781Z,102561.69
2022-12-05T04:02:16.802Z,102564.28
2022-12-05T04:04:59.663Z,102557.41
2022-12-05T04:07:29.454Z,102555.66
2022-12-05T04:09:59.374Z,102537.59
2022-12-05T04:12:30.335Z,102548.75
2022-12-05T04:15:02.130Z,102547.91
2022-12-05T04:17:38.700Z,102545.31
2022-12-05T04:20:37.446Z,102535.88
2022-12-05T04:23:04.319Z,102547.06
2022-12-05T04:25:39.639Z,102529.00
2022-12-05T04:28:27.947Z,102534.19
2022-12-05T04:31:22.962Z,102541.03
2022-12-05T04:33:57.189Z,102535.84
2022-12-05T04:36:35.603Z,102536.75
2022-12-05T04:39:17.947Z,102541.91
2022-12-05T04:42:01.072Z,102535.00
2022-12-05T04:44:33.538Z,102531.56
2022-12-05T04:47:04.061Z,102537.59
2022-12-05T04:49:33.335Z,102528.09
2022-12-05T04:52:04.365Z,102539.31
2022-12-05T04:54:37.147Z,102534.16
2022-12-05T04:57:29.511Z,102528.09
2022-12-05T04:59:56.714Z,102515.22
2022-12-05T05:02:33.949Z,102532.44
2022-12-05T05:05:02.875Z,102527.25
2022-12-05T05:07:30.038Z,102526.41
2022-12-05T05:09:57.430Z,102507.47
2022-12-05T05:12:24.302Z,102518.66
2022-12-05T05:14:51.212Z,102525.53
2022-12-05T05:17:17.843Z,102500.56
2022-12-05T05:19:44.478Z,102529.00
2022-12-05T05:22:11.473Z,102524.69
2022-12-05T05:24:38.094Z,102530.72
2022-12-05T05:27:04.703Z,102533.28
2022-12-05T05:29:31.666Z,102532.44
2022-12-05T05:31:58.315Z,102535.00
2022-12-05T05:34:26.623Z,102541.03
2022-12-05T05:36:53.539Z,102537.59
2022-12-05T05:39:20.257Z,102556.53
2022-12-05T05:41:46.897Z,102540.12
2022-12-05T05:44:13.843Z,102553.06
2022-12-05T05:46:40.578Z,102547.88
2022-12-05T05:49:07.432Z,102529.00
2022-12-05T05:51:34.592Z,102554.78
2022-12-05T05:54:01.576Z,102555.66
2022-12-05T05:56:29.483Z,102554.78
2022-12-05T05:58:58.948Z,102556.50
2022-12-05T06:01:25.666Z,102561.69
2022-12-05T06:03:52.750Z,102561.66
2022-12-05T06:06:20.824Z,102542.72
2022-12-05T06:08:48.157Z,102559.91
2022-12-05T06:11:23.158Z,102559.03
2022-12-05T06:13:52.431Z,102556.44
2022-12-05T06:16:21.339Z,102565.91
2022-12-05T06:18:49.739Z,102559.84
2022-12-05T06:21:16.868Z,102559.84
2022-12-05T06:23:43.866Z,102549.47
2022-12-05T06:26:12.936Z,102554.63
2022-12-05T06:28:39.841Z,102559.81
2022-12-05T06:31:17.335Z,102548.66
2022-12-05T06:33:44.821Z,102553.81
2022-12-05T06:36:15.067Z,102548.63
2022-12-05T06:38:42.712Z,102547.72
2022-12-05T06:41:13.505Z,102540.84
2022-12-05T06:43:40.584Z,102545.97
2022-12-05T06:46:08.940Z,102523.56
2022-12-05T06:48:35.908Z,102520.09
2022-12-05T06:51:03.232Z,102545.06
2022-12-05T06:53:29.883Z,102531.25
2022-12-05T06:56:02.234Z,102542.44
2022-12-05T06:58:29.757Z,102526.09
2022-12-05T07:01:15.177Z,102538.91
2022-12-05T07:03:44.182Z,102534.59
2022-12-05T07:06:11.426Z,102517.44
2022-12-05T07:08:38.173Z,102537.22
2022-12-05T07:11:05.256Z,102532.03
2022-12-05T07:13:32.676Z,102522.59
2022-12-05T07:16:00.060Z,102511.41
2022-12-05T07:18:27.279Z,102537.22
2022-12-05T07:21:14.790Z,102540.62
2022-12-05T07:23:44.048Z,102532.78
2022-12-05T07:26:14.129Z,102532.78
2022-12-05T07:28:40.753Z,102530.19
2022-12-05T07:31:10.836Z,102510.44
2022-12-05T07:33:38.416Z,102515.59
2022-12-05T07:36:09.176Z,102530.06
2022-12-05T07:38:36.110Z,102528.37
2022-12-05T07:41:13.458Z,102510.31
2022-12-05T07:43:41.849Z,102515.34
2022-12-05T07:46:11.562Z,102520.44
2022-12-05T10:46:19.840Z,102392.69
2022-12-05T10:49:43.032Z,102392.69
2022-12-05T10:52:33.397Z,102402.13
2022-12-05T10:55:29.834Z,102393.47
2022-12-05T10:58:25.520Z,102390.09
2022-12-05T11:08:03.896Z,102383.28
2022-12-05T11:11:27.714Z,102374.78
2022-12-05T11:14:30.859Z,102374.91
2022-12-05T11:27:01.375Z,102339.75
2022-12-05T11:30:51.800Z,102351.66
2022-12-05T11:33:45.300Z,102348.16
2022-12-05T11:39:56.097Z,102322.41
2022-12-05T11:43:33.608Z,102330.06
2022-12-05T11:50:08.991Z,102326.50
2022-12-05T11:55:03.462Z,102316.06
2022-12-05T11:56:58.876Z,102312.56
2022-12-05T12:07:47.973Z,102303.12
2022-12-05T12:10:44.795Z,102299.75
2022-12-05T12:13:44.151Z,102292.94
2022-12-05T12:16:36.775Z,102284.31
2022-12-05T12:19:19.688Z,102286.94
2022-12-05T12:22:06.240Z,102286.88
2022-12-05T12:25:26.281Z,102286.88
2022-12-05T12:28:32.019Z,102279.91
2022-12-05T12:31:37.290Z,102263.66
2022-12-05T12:34:35.051Z,102273.97
2022-12-05T12:38:13.782Z,102272.19
2022-12-05T12:41:25.452Z,102267.03
2022-12-05T12:44:45.904Z,102279.97
2022-12-05T12:48:14.895Z,102274.81
2022-12-05T12:57:13.944Z,102266.22
2022-12-05T13:01:12.723Z,102258.56
2022-12-05T13:03:51.681Z,102271.44
2022-12-05T13:06:54.647Z,102277.56
2022-12-05T13:09:48.786Z,102280.19
2022-12-05T13:19:09.765Z,102266.41
2022-12-05T13:28:34.498Z,102273.47
2022-12-05T13:32:04.045Z,102253.75
2022-12-05T13:35:08.122Z,102262.28
2022-12-05T13:41:44.273Z,102256.31
2022-12-05T13:44:42.261Z,102246.87
2022-12-05T13:51:30.527Z,102247.78
2022-12-05T13:54:32.594Z,102244.31
2022-12-05T13:57:15.507Z,102244.31
2022-12-05T14:00:37.768Z,102235.75
2022-12-05T14:03:52.071Z,102227.19
2022-12-05T14:07:21.365Z,102234.94
2022-12-05T14:10:22.924Z,102226.28
2022-12-05T14:13:02.790Z,102220.25
2022-12-05T14:15:51.821Z,102215.91
2022-12-05T14:20:14.941Z,102197.91
2022-12-05T14:22:51.590Z,102212.50
2022-12-05T14:29:14.049Z,102205.59
2022-12-05T14:35:05.326Z,102203.00
2022-12-05T14:37:36.370Z,102201.28
2022-12-05T14:40:18.608Z,102187.59
2022-12-05T14:43:27.256Z,102180.72
2022-12-05T14:45:53.856Z,102186.72
2022-12-05T14:48:20.742Z,102200.41
2022-12-05T14:50:52.829Z,102196.94
2022-12-05T14:53:39.397Z,102197.78
2022-12-05T14:56:16.191Z,102199.50
2022-12-05T14:58:50.646Z,102199.47
2022-12-05T15:01:35.320Z,102196.03
2022-12-05T15:04:11.665Z,102183.22
2022-12-05T15:06:49.929Z,102204.62
2022-12-05T15:09:43.695Z,102198.59
2022-12-05T15:12:38.137Z,102200.28
2022-12-05T15:15:31.280Z,102195.16
2022-12-05T15:18:05.619Z,102200.34
2022-12-05T15:20:44.226Z,102198.66
2022-12-05T15:23:40.183Z,102194.31
2022-12-05T15:29:12.080Z,102196.00
2022-12-05T15:31:46.286Z,102190.78
2022-12-05T15:34:29.392Z,102200.28
2022-12-05T15:37:13.751Z,102189.94
2022-12-05T15:39:54.671Z,102193.41
2022-12-05T15:42:30.247Z,102191.66
2022-12-05T15:45:12.061Z,102190.84
2022-12-05T15:47:40.421Z,102173.69
2022-12-05T15:50:17.435Z,102190.88
2022-12-05T15:53:03.988Z,102191.75
2022-12-05T15:55:38.847Z,102191.75
2022-12-05T15:58:23.460Z,102196.09
2022-12-05T16:00:59.369Z,102171.22
2022-12-05T16:03:26.208Z,102185.75
2022-12-05T16:06:00.795Z,102171.06
2022-12-05T16:08:40.615Z,102176.28
2022-12-05T16:11:09.675Z,102165.22
2022-12-05T16:13:42.670Z,102172.84
2022-12-05T19:15:05.283Z,102114.72
2022-12-05T19:17:32.433Z,102114.72
2022-12-05T19:20:01.132Z,102109.41
2022-12-05T19:22:27.908Z,102087.97
2022-12-05T19:24:54.908Z,102082.84
2022-12-05T19:27:21.680Z,102098.22
2022-12-05T19:29:48.489Z,102103.34
2022-12-05T19:32:15.555Z,102102.50
2022-12-05T19:34:42.697Z,102103.41
2022-12-05T19:37:09.478Z,102106.88
2022-12-05T19:39:37.719Z,102093.19
2022-12-05T19:42:04.758Z,102094.81
2022-12-05T19:44:32.037Z,102097.44
2022-12-05T19:46:58.993Z,102094.00
2022-12-05T19:49:25.594Z,102097.47
2022-12-05T19:51:52.703Z,102088.91
2022-12-05T19:54:21.885Z,102075.19
2022-12-05T19:56:48.575Z,102094.91
2022-12-05T19:59:18.390Z,102088.03
2022-12-05T20:01:46.002Z,102070.91
2022-12-05T20:04:15.132Z,102089.75
2022-12-05T20:06:45.338Z,102081.09
2022-12-05T20:09:14.040Z,102084.50
2022-12-05T20:11:47.095Z,102085.41
2022-12-05T20:14:18.355Z,102093.16
2022-12-05T20:16:45.634Z,102079.28
2022-12-05T20:19:12.603Z,102083.59
2022-12-05T20:21:42.044Z,102081.84
2022-12-05T20:24:10.440Z,102061.22
2022-12-05T20:26:40.593Z,102075.72
2022-12-05T20:29:07.840Z,102075.72
2022-12-05T20:31:37.422Z,102081.78
2022-12-05T20:34:04.943Z,102068.09
2022-12-05T20:36:33.693Z,102059.50
2022-12-05T20:39:03.313Z,102074.84
2022-12-05T20:41:30.493Z,102075.66
2022-12-05T20:44:00.067Z,102076.59
2022-12-05T20:46:28.382Z,102075.66
2022-12-05T20:48:56.326Z,102080.81
2022-12-05T20:51:29.031Z,102066.31
2022-12-05T20:53:57.887Z,102082.50
2022-12-05T20:56:28.369Z,102078.19
2022-12-05T20:58:58.083Z,102064.53
2022-12-05T21:01:26.497Z,102082.50
2022-12-05T21:03:55.080Z,102085.94
2022-12-05T21:06:27.500Z,102062.00
2022-12-05T21:08:55.557Z,102085.97
2022-12-05T21:11:23.649Z,102089.38
2022-12-05T21:13:50.726Z,102098.03
2022-12-05T21:16:20.872Z,102088.50
2022-12-05T21:18:48.137Z,102096.28
2022-12-05T21:21:17.684Z,102085.91
2022-12-05T21:23:46.891Z,102086.75
2022-12-05T21:26:16.058Z,102073.78
2022-12-05T21:28:44.445Z,102075.47
2022-12-05T21:31:24.071Z,102074.63
2022-12-05T21:33:57.270Z,102069.44
2022-12-05T21:36:25.739Z,102063.41
2022-12-05T21:38:55.909Z,102049.75
2022-12-05T21:41:24.227Z,102047.16
2022-12-05T21:43:55.093Z,102063.47
2022-12-05T21:46:23.460Z,102059.16
2022-12-05T21:48:50.182Z,102046.34
2022-12-05T21:51:17.500Z,102049.72
2022-12-05T21:53:44.361Z,102047.13
2022-12-05T21:56:16.951Z,102048.00
2022-12-05T21:58:45.996Z,102047.16
2022-12-05T22:01:17.975Z,102045.47
2022-12-05T22:03:45.710Z,102042.97
2022-12-05T22:06:15.358Z,102042.06
2022-12-05T22:08:42.932Z,102025.00
2022-12-05T22:11:12.662Z,102028.47
2022-12-05T22:13:40.310Z,102039.53
2022-12-05T22:16:08.148Z,102036.94
2022-12-05T22:18:35.551Z,102018.16
2022-12-05T22:21:05.613Z,102021.47
2022-12-05T22:23:33.619Z,102013.03
2022-12-05T22:26:03.616Z,102016.37
2022-12-05T22:28:30.907Z,102014.62
2022-12-05T22:30:59.149Z,102024.19
2022-12-05T22:33:27.044Z,102013.91
2022-12-05T22:35:56.766Z,102019.94
2022-12-05T22:38:25.430Z,102013.06
2022-12-05T22:41:06.667Z,101994.22
2022-12-05T22:43:34.725Z,102002.72
2022-12-05T22:46:07.080Z,102002.72
2022-12-05T22:48:34.401Z,101987.19
2022-12-05T22:51:01.800Z,101987.19
2022-12-05T22:53:29.321Z,101983.75
2022-12-05T22:56:21.774Z,101976.84
2022-12-05T22:58:49.027Z,101976.84
2022-12-05T23:01:16.904Z,101962.16
2022-12-05T23:03:46.190Z,101961.28
2022-12-05T23:06:15.521Z,101960.44
2022-12-05T23:08:43.414Z,101954.44
2022-12-05T23:11:11.326Z,101950.12
2022-12-05T23:13:39.415Z,101936.44
2022-12-05T23:16:12.176Z,101935.50
2022-12-05T23:18:48.048Z,101932.84
2022-12-05T23:21:23.223Z,101944.09
2022-12-05T23:23:52.884Z,101931.19
2022-12-05T23:26:21.824Z,101926.91
2022-12-05T23:28:48.985Z,101933.81
2022-12-05T23:31:16.418Z,101916.72
2022-12-05T23:33:43.318Z,101930.41
2022-12-05T23:36:10.942Z,101936.50
2022-12-05T23:38:39.959Z,101933.03
2022-12-05T23:41:17.312Z,101926.19
2022-12-05T23:43:44.916Z,101929.72
2022-12-05T23:46:13.144Z,101919.47
2022-12-05T23:48:40.184Z,101920.44
2022-12-05T23:51:19.729Z,101918.03
2022-12-05T23:53:51.208Z,101900.97
2022-12-05T23:56:21.558Z,101912.94
2022-12-05T23:58:48.215Z,101918.22
